createdAt,value
2018-11-02T00:00:19.580Z,23.57
2018-11-02T00:02:49.168Z,21.87
2018-11-02T00:05:18.437Z,19.97
2018-11-02T00:07:47.702Z,21.60
2018-11-02T00:10:16.950Z,23.87
2018-11-02T00:12:46.264Z,24.60
2018-11-02T00:15:15.537Z,20.10
2018-11-02T00:17:44.818Z,24.70
2018-11-02T00:20:14.093Z,20.10
2018-11-02T00:22:44.389Z,17.60
2018-11-02T00:25:13.652Z,31.20
2018-11-02T00:27:42.891Z,30.70
2018-11-02T00:30:12.288Z,21.57
2018-11-02T00:32:41.612Z,22.77
2018-11-02T00:35:10.916Z,23.47
2018-11-02T00:37:40.154Z,25.33
2018-11-02T00:40:09.795Z,19.80
2018-11-02T00:42:39.916Z,17.90
2018-11-02T00:45:11.164Z,18.97
2018-11-02T00:47:40.568Z,18.50
2018-11-02T00:50:11.606Z,23.23
2018-11-02T00:52:41.008Z,22.57
2018-11-02T00:55:10.760Z,17.87
2018-11-02T00:57:40.018Z,23.17
2018-11-02T01:00:11.779Z,31.00
2018-11-02T01:02:41.088Z,28.73
2018-11-02T01:05:10.785Z,32.73
2018-11-02T01:07:40.113Z,31.07
2018-11-02T01:10:09.416Z,24.67
2018-11-02T01:12:39.300Z,26.83
2018-11-02T01:15:10.033Z,23.17
2018-11-02T01:17:39.364Z,22.67
2018-11-02T01:20:10.483Z,43.73
2018-11-02T01:22:39.806Z,32.77
2018-11-02T01:25:09.489Z,23.57
2018-11-02T01:27:38.781Z,28.83
2018-11-02T01:30:08.118Z,30.63
2018-11-02T01:32:37.485Z,23.00
2018-11-02T01:35:07.957Z,26.93
2018-11-02T01:37:37.452Z,24.47
2018-11-02T01:40:07.711Z,23.53
2018-11-02T01:42:37.046Z,22.43
2018-11-02T01:45:06.269Z,25.20
2018-11-02T01:47:35.513Z,27.47
2018-11-02T01:50:05.337Z,27.90
2018-11-02T01:52:34.654Z,26.60
2018-11-02T01:55:03.984Z,23.60
2018-11-02T01:57:33.262Z,21.33
2018-11-02T02:00:02.535Z,26.17
2018-11-02T02:02:31.884Z,23.13
2018-11-02T02:05:01.161Z,22.67
2018-11-02T02:07:30.708Z,21.80
2018-11-02T02:10:00.001Z,32.53
2018-11-02T02:12:29.363Z,25.50
2018-11-02T02:14:58.564Z,23.73
2018-11-02T02:17:27.832Z,24.07
2018-11-02T02:19:57.093Z,31.27
2018-11-02T02:22:26.331Z,27.80
2018-11-02T02:24:55.583Z,28.20
2018-11-02T02:27:24.839Z,28.57
2018-11-02T02:29:54.064Z,26.90
2018-11-02T02:32:23.346Z,27.07
2018-11-02T02:34:52.586Z,25.60
2018-11-02T02:37:21.830Z,25.43
2018-11-02T02:39:51.112Z,24.63
2018-11-02T02:42:20.464Z,24.03
2018-11-02T02:44:49.683Z,23.80
2018-11-02T02:47:18.912Z,23.47
2018-11-02T02:49:48.165Z,24.13
2018-11-02T02:52:17.451Z,22.70
2018-11-02T02:54:46.686Z,22.80
2018-11-02T02:57:15.949Z,26.23
2018-11-02T02:59:45.256Z,39.10
2018-11-02T03:02:14.580Z,39.23
2018-11-02T03:04:43.825Z,37.63
2018-11-02T03:07:13.061Z,30.70
2018-11-02T03:09:42.357Z,23.53
2018-11-02T03:12:11.761Z,25.03
2018-11-02T03:14:41.092Z,31.00
2018-11-02T03:17:10.360Z,36.37
2018-11-02T03:19:39.630Z,25.93
2018-11-02T03:22:08.962Z,27.33
2018-11-02T03:24:38.225Z,26.50
2018-11-02T03:27:07.459Z,28.90
2018-11-02T03:29:36.725Z,27.57
2018-11-02T03:32:06.446Z,27.67
2018-11-02T03:34:35.693Z,29.20
2018-11-02T03:37:04.964Z,25.20
2018-11-02T03:39:34.260Z,24.20
2018-11-02T03:42:03.565Z,24.63
2018-11-02T03:44:33.140Z,28.30
2018-11-02T03:47:02.475Z,29.90
2018-11-02T03:49:31.700Z,29.50
2018-11-02T03:52:01.008Z,33.10
2018-11-02T03:54:30.308Z,37.83
2018-11-02T03:56:59.588Z,32.53
2018-11-02T03:59:28.863Z,32.10
2018-11-02T04:01:58.141Z,34.33
2018-11-02T04:04:27.459Z,30.77
2018-11-02T04:06:56.703Z,33.13
2018-11-02T04:09:26.043Z,29.40
2018-11-02T04:11:55.277Z,27.20
2018-11-02T04:14:24.546Z,30.17
2018-11-02T04:16:53.812Z,32.53
2018-11-02T04:19:23.161Z,36.57
2018-11-02T04:21:52.444Z,37.97
2018-11-02T04:24:21.700Z,59.90
2018-11-02T04:26:50.971Z,51.70
2018-11-02T04:29:20.435Z,47.87
2018-11-02T04:31:49.939Z,45.73
2018-11-02T04:34:19.418Z,50.17
2018-11-02T04:36:49.007Z,40.13
2018-11-02T04:39:18.424Z,42.03
2018-11-02T04:41:47.835Z,43.77
2018-11-02T04:44:17.421Z,36.67
2018-11-02T04:46:46.734Z,35.03
2018-11-02T04:49:16.382Z,32.43
2018-11-02T04:51:45.829Z,29.13
2018-11-02T04:54:15.281Z,24.50
2018-11-02T04:56:44.556Z,25.40
2018-11-02T04:59:13.828Z,27.17
2018-11-02T05:01:43.128Z,24.53
2018-11-02T05:04:12.422Z,24.43
2018-11-02T05:06:41.657Z,29.60
2018-11-02T05:09:10.944Z,30.77
2018-11-02T05:11:40.245Z,37.83
2018-11-02T05:14:09.633Z,36.13
2018-11-02T05:16:38.907Z,28.83
2018-11-02T05:19:08.192Z,28.20
2018-11-02T05:21:37.560Z,26.63
2018-11-02T05:24:06.954Z,27.67
2018-11-02T05:26:36.469Z,27.70
2018-11-02T05:29:06.340Z,26.67
2018-11-02T05:31:35.640Z,28.53
2018-11-02T05:34:06.046Z,27.03
2018-11-02T05:36:35.416Z,26.40
2018-11-02T05:39:06.828Z,27.73
2018-11-02T05:41:36.092Z,28.17
2018-11-02T05:44:05.754Z,26.43
2018-11-02T05:46:35.140Z,38.47
2018-11-02T05:49:04.465Z,29.00
2018-11-02T05:51:33.964Z,37.33
2018-11-02T05:54:03.407Z,33.63
2018-11-02T05:56:33.028Z,26.63
2018-11-02T05:59:02.361Z,25.33
2018-11-02T06:01:31.930Z,25.30
2018-11-02T06:04:01.285Z,30.57
2018-11-02T06:06:30.590Z,53.43
2018-11-02T06:08:59.865Z,46.40
2018-11-02T06:11:29.152Z,35.10
2018-11-02T06:13:58.499Z,35.17
2018-11-02T06:16:27.768Z,41.90
2018-11-02T06:18:57.132Z,24.30
2018-11-02T06:21:26.400Z,25.37
2018-11-02T06:23:55.760Z,23.23
2018-11-02T06:26:25.115Z,23.50
2018-11-02T06:28:54.488Z,25.00
2018-11-02T06:31:23.737Z,27.33
2018-11-02T06:33:53.100Z,25.70
2018-11-02T06:36:22.467Z,23.40
2018-11-02T06:38:51.904Z,27.47
2018-11-02T06:41:21.107Z,24.43
2018-11-02T06:43:50.761Z,23.80
2018-11-02T06:46:20.011Z,25.00
2018-11-02T06:48:49.559Z,33.20
2018-11-02T06:51:18.917Z,26.63
2018-11-02T06:53:48.367Z,22.97
2018-11-02T06:56:17.636Z,23.17
2018-11-02T06:58:46.961Z,23.03
2018-11-02T07:01:16.338Z,20.63
2018-11-02T07:03:46.121Z,20.90
2018-11-02T07:06:15.453Z,21.03
2018-11-02T07:08:44.712Z,21.23
2018-11-02T07:11:15.152Z,21.27
2018-11-02T07:13:44.661Z,19.97
2018-11-02T07:16:14.082Z,19.80
2018-11-02T07:18:43.363Z,23.70
2018-11-02T07:21:12.664Z,20.73
2018-11-02T07:23:42.068Z,20.97
2018-11-02T07:26:11.321Z,20.80
2018-11-02T07:28:40.603Z,20.67
2018-11-02T07:31:09.896Z,22.80
2018-11-02T07:33:41.296Z,25.33
2018-11-02T07:36:10.601Z,21.70
2018-11-02T07:38:39.892Z,18.17
2018-11-02T07:41:09.133Z,18.33
2018-11-02T07:43:38.527Z,18.97
2018-11-02T07:46:07.843Z,24.00
2018-11-02T07:48:37.189Z,19.77
2018-11-02T07:51:06.916Z,18.80
2018-11-02T07:53:36.296Z,17.40
2018-11-02T07:56:05.685Z,16.83
2018-11-02T07:58:34.956Z,18.83
2018-11-02T08:01:04.248Z,18.87
2018-11-02T08:03:33.788Z,18.60
2018-11-02T08:06:03.188Z,18.97
2018-11-02T08:08:32.465Z,18.87
2018-11-02T08:11:01.690Z,19.83
2018-11-02T08:13:31.050Z,19.20
2018-11-02T08:16:00.369Z,19.90
2018-11-02T08:18:29.645Z,18.63
2018-11-02T08:20:58.961Z,18.87
2018-11-02T08:23:28.351Z,17.73
2018-11-02T08:25:57.651Z,16.37
2018-11-02T08:28:26.919Z,16.27
2018-11-02T08:30:56.169Z,17.43
2018-11-02T08:33:25.521Z,18.80
2018-11-02T08:35:55.209Z,18.83
2018-11-02T08:38:24.486Z,19.60
2018-11-02T08:40:53.745Z,19.83
2018-11-02T08:43:23.065Z,21.33
2018-11-02T08:45:52.307Z,20.60
2018-11-02T08:48:21.607Z,20.20
2018-11-02T08:50:50.836Z,18.93
2018-11-02T08:53:20.133Z,20.47
2018-11-02T08:55:49.371Z,16.97
2018-11-02T08:58:18.834Z,17.57
2018-11-02T09:00:47.977Z,18.70
2018-11-02T09:03:17.376Z,18.60
2018-11-02T09:05:46.691Z,17.30
2018-11-02T09:08:15.936Z,16.90
2018-11-02T09:10:45.921Z,16.80
2018-11-02T09:13:15.257Z,18.50
2018-11-02T09:15:44.551Z,18.03
2018-11-02T09:18:13.850Z,17.53
2018-11-02T09:20:43.149Z,18.80
2018-11-02T09:23:12.482Z,17.87
2018-11-02T09:25:42.195Z,17.20
2018-11-02T09:28:11.543Z,15.93
2018-11-02T09:30:40.768Z,16.47
2018-11-02T09:33:10.093Z,17.77
2018-11-02T09:35:39.470Z,17.73
2018-11-02T09:38:08.740Z,17.43
2018-11-02T09:40:37.988Z,17.53
2018-11-02T09:43:07.378Z,17.23
2018-11-02T09:45:36.648Z,15.63
2018-11-02T09:48:06.577Z,18.13
2018-11-02T09:50:35.824Z,14.43
2018-11-02T09:53:05.185Z,17.67
2018-11-02T09:55:34.525Z,16.73
2018-11-02T09:58:03.762Z,16.83
2018-11-02T10:00:33.092Z,15.93
2018-11-02T10:03:02.502Z,15.57
2018-11-02T10:05:31.789Z,16.03
2018-11-02T10:08:01.241Z,14.70
2018-11-02T10:10:30.576Z,15.93
2018-11-02T10:12:59.992Z,15.80
2018-11-02T10:15:29.327Z,16.37
2018-11-02T10:17:58.637Z,14.80
2018-11-02T10:20:27.872Z,14.77
2018-11-02T10:22:57.474Z,15.93
2018-11-02T10:25:26.766Z,15.23
2018-11-02T10:27:56.325Z,16.43
2018-11-02T10:30:25.812Z,16.83
2018-11-02T10:32:57.377Z,16.13
2018-11-02T10:35:26.939Z,17.20
2018-11-02T10:37:57.678Z,15.83
2018-11-02T10:40:27.205Z,16.00
2018-11-02T10:42:59.517Z,17.33
2018-11-02T10:45:32.907Z,16.87
2018-11-02T10:48:03.721Z,15.03
2018-11-02T10:50:33.040Z,12.80
2018-11-02T10:53:02.548Z,12.20
2018-11-02T10:55:31.824Z,14.10
2018-11-02T10:58:01.159Z,12.63
2018-11-02T11:00:35.711Z,12.87
2018-11-02T11:03:05.158Z,11.50
2018-11-02T11:05:34.538Z,11.87
2018-11-02T11:08:03.781Z,11.07
2018-11-02T11:10:33.161Z,11.10
2018-11-02T11:13:02.933Z,10.37
2018-11-02T11:15:31.867Z,10.97
2018-11-02T11:18:01.198Z,10.77
2018-11-02T11:20:33.515Z,11.53
2018-11-02T11:23:03.105Z,10.30
2018-11-02T11:25:32.461Z,10.13
2018-11-02T11:28:01.834Z,10.23
2018-11-02T11:30:31.143Z,10.33
2018-11-02T11:33:00.496Z,11.00
2018-11-02T11:35:29.798Z,10.67
2018-11-02T11:37:59.129Z,9.20
2018-11-02T11:40:28.392Z,10.00
2018-11-02T11:42:57.923Z,9.77
2018-11-02T11:45:27.249Z,9.90
2018-11-02T11:47:56.900Z,9.83
2018-11-02T11:50:26.634Z,7.33
2018-11-02T11:52:56.014Z,6.93
2018-11-02T11:55:25.319Z,7.23
2018-11-02T11:57:54.682Z,6.13
2018-11-02T12:00:25.794Z,6.20
2018-11-02T12:02:55.148Z,6.17
2018-11-02T12:05:24.901Z,5.70
2018-11-02T12:07:54.202Z,6.30
2018-11-02T12:10:24.720Z,6.17
2018-11-02T12:12:55.026Z,6.27
2018-11-02T12:15:24.615Z,6.60
2018-11-02T12:17:53.920Z,6.90
2018-11-02T12:20:25.858Z,6.17
2018-11-02T12:22:57.604Z,5.70
2018-11-02T12:25:26.882Z,6.00
2018-11-02T12:27:56.238Z,4.73
2018-11-02T12:30:25.529Z,4.50
2018-11-02T12:32:54.994Z,4.60
2018-11-02T12:35:24.265Z,4.57
2018-11-02T12:37:53.568Z,4.07
2018-11-02T12:40:23.803Z,4.63
2018-11-02T12:42:54.234Z,4.30
2018-11-02T12:45:23.930Z,3.50
2018-11-02T12:47:53.343Z,3.60
2018-11-02T12:50:25.327Z,3.30
2018-11-02T12:52:55.715Z,3.33
2018-11-02T12:55:25.188Z,3.40
2018-11-02T12:57:54.499Z,3.37
2018-11-02T13:00:25.025Z,3.50
2018-11-02T13:02:54.916Z,3.33
2018-11-02T13:05:24.239Z,3.07
2018-11-02T13:07:53.563Z,3.13
2018-11-02T13:10:23.535Z,3.50
2018-11-02T13:12:52.800Z,3.30
2018-11-02T13:15:23.390Z,3.10
2018-11-02T13:17:52.971Z,3.50
2018-11-02T13:20:22.327Z,3.30
2018-11-02T13:22:52.001Z,3.00
2018-11-02T13:25:22.337Z,3.30
2018-11-02T13:27:52.263Z,3.70
2018-11-02T13:30:21.599Z,3.97
2018-11-02T13:32:50.960Z,3.17
2018-11-02T13:35:20.763Z,4.70
2018-11-02T13:37:50.649Z,4.60
2018-11-02T13:40:20.157Z,4.97
2018-11-02T13:42:49.568Z,6.83
2018-11-02T13:45:19.185Z,6.57
2018-11-02T13:47:48.636Z,7.40
2018-11-02T13:50:18.075Z,6.67
2018-11-02T13:52:47.924Z,6.57
2018-11-02T13:55:17.190Z,7.03
2018-11-02T13:57:46.545Z,7.00
2018-11-02T14:00:17.431Z,7.50
2018-11-02T14:02:46.881Z,6.23
2018-11-02T14:05:17.052Z,6.90
2018-11-02T14:07:46.312Z,6.67
2018-11-02T14:10:15.582Z,6.67
2018-11-02T14:12:44.988Z,6.27
2018-11-02T14:15:15.496Z,5.87
2018-11-02T14:17:45.005Z,5.93
2018-11-02T14:20:14.822Z,5.87
2018-11-02T14:22:44.320Z,4.70
2018-11-02T14:25:14.830Z,5.23
2018-11-02T14:27:44.245Z,7.10
2018-11-02T14:30:14.904Z,5.57
2018-11-02T14:32:45.934Z,6.13
2018-11-02T14:35:15.294Z,5.50
2018-11-02T14:37:44.588Z,5.23
2018-11-02T14:40:13.847Z,5.40
2018-11-02T14:42:43.620Z,5.73
2018-11-02T14:45:15.590Z,5.90
2018-11-02T14:47:45.804Z,5.80
2018-11-02T14:50:15.068Z,5.93
2018-11-02T14:52:44.534Z,25.13
2018-11-02T14:55:13.829Z,19.23
2018-11-02T14:57:43.126Z,7.43
2018-11-02T15:00:12.921Z,6.87
2018-11-02T15:02:42.676Z,8.20
2018-11-02T15:05:13.708Z,7.47
2018-11-02T15:07:43.790Z,10.77
2018-11-02T15:10:13.117Z,7.10
2018-11-02T15:12:42.552Z,7.43
2018-11-02T15:15:11.819Z,6.50
2018-11-02T15:17:41.196Z,6.60
2018-11-02T15:20:12.540Z,6.80
2018-11-02T15:22:41.949Z,6.73
2018-11-02T15:25:11.289Z,6.30
2018-11-02T15:27:42.179Z,6.30
2018-11-02T15:30:14.064Z,6.00
2018-11-02T15:32:44.807Z,5.63
2018-11-02T15:35:14.423Z,5.63
2018-11-02T15:37:44.011Z,5.07
2018-11-02T15:40:14.004Z,5.60
2018-11-02T15:42:43.636Z,6.37
2018-11-02T15:45:14.193Z,6.60
2018-11-02T15:47:43.961Z,6.47
2018-11-02T15:50:13.269Z,5.77
2018-11-02T15:52:42.583Z,5.70
2018-11-02T15:55:12.601Z,6.03
2018-11-02T15:57:41.885Z,6.33
2018-11-02T16:00:14.918Z,5.80
2018-11-02T16:02:45.189Z,5.97
2018-11-02T16:05:14.540Z,6.13
2018-11-02T16:07:43.856Z,6.33
2018-11-02T16:10:13.578Z,7.17
2018-11-02T16:12:43.715Z,6.37
2018-11-02T16:15:13.252Z,6.13
2018-11-02T16:17:42.557Z,6.60
2018-11-02T16:20:13.688Z,6.47
2018-11-02T16:22:43.699Z,6.00
2018-11-02T16:25:13.510Z,7.50
2018-11-02T16:27:42.965Z,6.63
2018-11-02T16:30:12.791Z,6.93
2018-11-02T16:32:42.172Z,9.70
2018-11-02T16:35:11.951Z,4.97
2018-11-02T16:37:41.361Z,3.90
2018-11-02T16:40:13.431Z,4.00
2018-11-02T16:42:43.328Z,3.47
2018-11-02T16:45:13.531Z,3.63
2018-11-02T16:47:43.522Z,3.67
2018-11-02T16:50:13.694Z,3.83
2018-11-02T16:52:43.605Z,4.23
2018-11-02T16:55:12.904Z,2.87
2018-11-02T16:57:42.448Z,3.10
2018-11-02T17:00:15.417Z,4.20
2018-11-02T17:02:45.823Z,3.87
2018-11-02T17:05:15.200Z,4.23
2018-11-02T17:07:44.480Z,3.50
2018-11-02T17:10:14.753Z,3.30
2018-11-02T17:12:44.792Z,3.73
2018-11-02T17:15:14.565Z,3.47
2018-11-02T17:17:43.876Z,3.43
2018-11-02T17:20:14.663Z,4.23
2018-11-02T17:22:44.065Z,4.63
2018-11-02T17:25:13.838Z,4.40
2018-11-02T17:27:43.149Z,5.27
2018-11-02T17:30:14.176Z,5.30
2018-11-02T17:32:43.589Z,4.97
2018-11-02T17:35:13.055Z,5.93
2018-11-02T17:37:42.394Z,5.83
2018-11-02T17:40:13.837Z,6.87
2018-11-02T17:42:43.866Z,7.63
2018-11-02T17:45:13.167Z,7.80
2018-11-02T17:47:42.978Z,8.87
2018-11-02T17:50:13.896Z,8.33
2018-11-02T17:52:43.589Z,9.20
2018-11-02T17:55:13.763Z,9.10
2018-11-02T17:57:43.184Z,9.90
2018-11-02T18:00:13.484Z,9.90
2018-11-02T18:02:43.296Z,9.60
2018-11-02T18:05:12.883Z,10.93
2018-11-02T18:07:42.284Z,9.03
2018-11-02T18:10:13.036Z,9.53
2018-11-02T18:12:42.423Z,9.20
2018-11-02T18:15:12.624Z,8.77
2018-11-02T18:17:41.956Z,8.27
2018-11-02T18:20:13.484Z,9.63
2018-11-02T18:22:43.077Z,9.97
2018-11-02T18:25:12.718Z,9.63
2018-11-02T18:27:42.668Z,6.87
2018-11-02T18:30:13.429Z,6.90
2018-11-02T18:32:42.769Z,6.53
2018-11-02T18:35:12.112Z,6.87
2018-11-02T18:37:41.457Z,6.13
2018-11-02T18:40:12.798Z,5.90
2018-11-02T18:42:42.606Z,6.50
2018-11-02T18:45:14.074Z,6.53
2018-11-02T18:47:46.871Z,5.53
2018-11-02T18:50:18.306Z,9.30
2018-11-02T18:52:48.338Z,6.07
2018-11-02T18:55:18.109Z,6.67
2018-11-02T18:57:47.561Z,6.73
2018-11-02T19:00:17.552Z,5.63
2018-11-02T19:02:47.743Z,5.27
2018-11-02T19:05:18.081Z,5.37
2018-11-02T19:07:47.412Z,5.23
2018-11-02T19:10:16.688Z,5.13
2018-11-02T19:12:45.984Z,4.73
2018-11-02T19:15:16.437Z,4.43
2018-11-02T19:17:45.709Z,4.83
2018-11-02T19:20:15.356Z,4.60
2018-11-02T19:22:44.951Z,5.00
2018-11-02T19:25:15.266Z,4.90
2018-11-02T19:27:45.556Z,4.93
2018-11-02T19:30:15.609Z,4.93
2018-11-02T19:32:45.186Z,5.43
2018-11-02T19:35:15.065Z,4.80
2018-11-02T19:37:44.645Z,4.13
2018-11-02T19:40:15.177Z,4.77
2018-11-02T19:42:44.600Z,4.60
2018-11-02T19:45:14.188Z,4.80
2018-11-02T19:48:14.141Z,4.50
2018-11-02T19:50:43.421Z,4.67
2018-11-02T19:53:12.845Z,4.30
2018-11-02T19:55:42.205Z,4.90
2018-11-02T19:58:11.879Z,6.90
2018-11-02T20:00:41.197Z,6.53
2018-11-02T20:03:10.643Z,6.00
2018-11-02T20:05:41.438Z,6.70
2018-11-02T20:08:10.848Z,4.80
2018-11-02T20:10:40.164Z,5.33
2018-11-02T20:13:09.832Z,4.87
2018-11-02T20:15:39.130Z,5.53
2018-11-02T20:18:08.786Z,10.03
2018-11-02T20:20:38.057Z,17.27
2018-11-02T20:23:07.384Z,11.53
2018-11-02T20:25:36.644Z,26.97
2018-11-02T20:28:06.058Z,4.57
2018-11-02T20:30:35.624Z,4.77
2018-11-02T20:33:04.998Z,5.10
2018-11-02T20:35:34.393Z,3.97
2018-11-02T20:38:03.701Z,8.63
2018-11-02T20:40:32.952Z,4.40
2018-11-02T20:43:02.253Z,4.50
2018-11-02T20:45:31.517Z,4.70
2018-11-02T20:48:00.886Z,5.10
2018-11-02T20:50:30.181Z,4.80
2018-11-02T20:52:59.840Z,4.43
2018-11-02T20:55:29.096Z,5.20
2018-11-02T20:57:58.404Z,3.90
2018-11-02T21:00:27.669Z,4.03
2018-11-02T21:02:56.962Z,4.00
2018-11-02T21:05:26.219Z,4.17
2018-11-02T21:07:55.744Z,4.20
2018-11-02T21:10:24.959Z,3.77
2018-11-02T21:12:54.267Z,4.10
2018-11-02T21:15:24.800Z,3.40
2018-11-02T21:17:54.411Z,4.47
2018-11-02T21:20:25.165Z,4.20
2018-11-02T21:22:54.549Z,3.83
2018-11-02T21:25:24.129Z,4.67
2018-11-02T21:27:53.376Z,3.87
2018-11-02T21:30:23.980Z,3.70
2018-11-02T21:32:54.000Z,4.13
2018-11-02T21:35:24.018Z,3.60
2018-11-02T21:37:53.456Z,3.80
2018-11-02T21:40:24.056Z,4.10
2018-11-02T21:42:53.349Z,3.87
2018-11-02T21:45:23.782Z,3.60
2018-11-02T21:47:53.054Z,4.13
2018-11-02T21:50:22.306Z,4.23
2018-11-02T21:52:51.681Z,3.93
2018-11-02T21:55:20.972Z,4.33
2018-11-02T21:57:50.556Z,5.20
2018-11-02T22:00:21.027Z,4.30
2018-11-02T22:02:50.412Z,4.33
2018-11-02T22:05:19.680Z,5.30
2018-11-02T22:07:49.971Z,4.87
2018-11-02T22:10:19.546Z,4.00
2018-11-02T22:12:48.948Z,4.17
2018-11-02T22:15:18.172Z,4.77
2018-11-02T22:17:47.412Z,4.43
2018-11-02T22:20:16.955Z,4.87
2018-11-02T22:22:46.248Z,4.60
2018-11-02T22:25:15.960Z,4.07
2018-11-02T22:27:45.259Z,4.40
2018-11-02T22:30:15.997Z,5.53
2018-11-02T22:32:45.332Z,4.50
2018-11-02T22:35:15.312Z,4.80
2018-11-02T22:37:44.929Z,5.20
2018-11-02T22:40:14.728Z,4.90
2018-11-02T22:42:44.441Z,5.03
2018-11-02T22:45:14.665Z,4.70
2018-11-02T22:47:49.025Z,5.53
2018-11-02T22:50:18.280Z,5.00
2018-11-02T22:52:47.577Z,4.97
2018-11-02T22:55:16.805Z,4.50
2018-11-02T22:57:46.111Z,4.80
2018-11-02T23:00:17.437Z,4.87
2018-11-02T23:02:47.649Z,4.87
2018-11-02T23:05:16.976Z,4.97
2018-11-02T23:07:46.327Z,4.37
2018-11-02T23:10:15.549Z,4.53
2018-11-02T23:12:44.852Z,4.47
2018-11-02T23:15:14.248Z,4.10
2018-11-02T23:17:43.546Z,4.80
2018-11-02T23:20:14.090Z,4.97
2018-11-02T23:22:43.389Z,4.80
2018-11-02T23:25:13.022Z,5.17
2018-11-02T23:27:43.935Z,5.03
2018-11-02T23:30:13.312Z,4.90
2018-11-02T23:32:42.703Z,4.40
2018-11-02T23:35:11.965Z,4.87
2018-11-02T23:37:41.229Z,4.40
2018-11-02T23:40:11.765Z,4.23
2018-11-02T23:42:41.164Z,4.33
2018-11-02T23:45:11.289Z,4.77
2018-11-02T23:47:44.712Z,4.30
2018-11-02T23:50:13.976Z,4.40
2018-11-02T23:52:43.278Z,4.07
2018-11-02T23:55:12.514Z,4.23
2018-11-02T23:57:41.786Z,3.93
